Terminal Aerodrome Forecast
Issued by NWS Jackson, KY

Home | Current Version | Previous Version | Text Only | Print | Product List | Glossary On
Versions: 1 2 3 4 5 6 7 8 9 10
000
FTUS43 KJKL 251100 RRA
TAFLOZ
TAF
KLOZ 251139Z 2512/2612 25008KT P6SM OVC015
     FM251300 25008KT P6SM BKN025
     FM251900 VRB05KT P6SM SCT025=

USA.gov is the U.S. government's official web portal to all federal, state and local government web resources and services.